createdAt,value
2024-04-18T00:00:14.505Z,1.20
2024-04-18T00:02:42.199Z,1.13
2024-04-18T00:05:32.574Z,1.00
2024-04-18T00:08:00.102Z,1.23
2024-04-18T00:10:27.589Z,1.25
2024-04-18T00:12:55.079Z,1.45
2024-04-18T00:15:23.669Z,0.95
2024-04-18T00:17:59.533Z,1.30
2024-04-18T00:20:31.393Z,1.30
2024-04-18T00:23:18.714Z,1.50
2024-04-18T00:26:06.094Z,0.93
2024-04-18T00:28:33.519Z,0.75
2024-04-18T00:31:15.869Z,0.70
2024-04-18T00:33:57.772Z,1.20
2024-04-18T00:36:32.320Z,0.90
2024-04-18T00:39:19.826Z,0.88
2024-04-18T00:41:59.698Z,1.02
2024-04-18T00:44:30.488Z,0.90
2024-04-18T00:47:14.304Z,1.05
2024-04-18T00:50:02.189Z,1.05
2024-04-18T00:52:43.176Z,1.23
2024-04-18T00:55:28.061Z,0.82
2024-04-18T00:58:12.635Z,1.10
2024-04-18T01:00:47.289Z,1.10
2024-04-18T01:06:08.290Z,0.80
2024-04-18T01:08:58.698Z,0.77
2024-04-18T01:11:34.244Z,1.52
2024-04-18T01:14:09.191Z,0.80
2024-04-18T01:16:55.398Z,1.08
2024-04-18T01:19:23.030Z,0.73
2024-04-18T01:21:50.527Z,1.10
2024-04-18T01:24:20.649Z,0.68
2024-04-18T01:26:50.874Z,0.65
2024-04-18T01:29:18.316Z,1.00
2024-04-18T01:32:04.465Z,1.00
2024-04-18T01:34:32.186Z,0.90
2024-04-18T01:37:17.827Z,1.08
2024-04-18T01:39:46.271Z,0.93
2024-04-18T01:42:16.407Z,0.80
2024-04-18T01:44:48.983Z,0.85
2024-04-18T01:47:38.853Z,0.70
2024-04-18T01:50:11.879Z,0.77
2024-04-18T01:52:40.617Z,0.80
2024-04-18T01:55:09.463Z,0.88
2024-04-18T01:57:41.253Z,0.77
2024-04-18T02:02:55.120Z,0.90
2024-04-18T02:05:41.247Z,0.70
2024-04-18T02:08:15.549Z,0.98
2024-04-18T02:13:36.523Z,0.60
2024-04-18T02:16:08.965Z,0.90
2024-04-18T02:19:08.931Z,0.70
2024-04-18T02:21:56.488Z,0.80
2024-04-18T02:24:38.981Z,1.00
2024-04-18T02:27:06.486Z,0.75
2024-04-18T02:29:36.512Z,0.90
2024-04-18T02:32:04.380Z,1.02
2024-04-18T02:34:31.977Z,0.88
2024-04-18T02:37:19.641Z,1.08
2024-04-18T02:39:48.198Z,0.90
2024-04-18T02:42:25.816Z,0.95
2024-04-18T02:45:02.036Z,0.90
2024-04-18T02:47:50.936Z,1.15
2024-04-18T02:50:37.165Z,1.00
2024-04-18T02:53:04.599Z,1.00
2024-04-18T02:55:31.996Z,1.15
2024-04-18T02:57:59.397Z,0.98
2024-04-18T03:00:30.588Z,0.90
2024-04-18T03:03:10.064Z,1.27
2024-04-18T03:06:04.323Z,0.70
2024-04-18T03:08:31.824Z,1.20
2024-04-18T03:11:17.070Z,1.27
2024-04-18T03:14:07.309Z,1.00
2024-04-18T03:16:37.342Z,1.05
2024-04-18T03:19:19.868Z,0.98
2024-04-18T03:21:53.657Z,1.15
2024-04-18T03:24:22.612Z,1.10
2024-04-18T03:26:51.958Z,1.10
2024-04-18T03:29:19.653Z,0.80
2024-04-18T03:32:04.297Z,0.65
2024-04-18T03:34:46.796Z,1.15
2024-04-18T03:37:16.008Z,1.10
2024-04-18T03:39:43.578Z,1.15
2024-04-18T03:42:11.013Z,0.75
2024-04-18T03:44:53.841Z,1.40
2024-04-18T03:47:24.197Z,3.35
2024-04-18T03:50:09.787Z,2.80
2024-04-18T03:52:41.119Z,1.95
2024-04-18T03:55:27.239Z,1.48
2024-04-18T03:57:54.855Z,1.17
2024-04-18T04:00:42.950Z,1.73
2024-04-18T04:03:13.642Z,1.90
2024-04-18T04:05:41.098Z,2.60
2024-04-18T04:08:11.896Z,3.00
2024-04-18T04:10:40.116Z,2.60
2024-04-18T04:13:07.456Z,2.40
2024-04-18T04:15:48.395Z,2.20
2024-04-18T04:18:38.790Z,2.60
2024-04-18T04:21:39.353Z,3.88
2024-04-18T04:24:07.607Z,2.42
2024-04-18T04:26:51.307Z,2.45
2024-04-18T04:29:19.606Z,2.50
2024-04-18T04:31:47.623Z,2.53
2024-04-18T04:34:18.842Z,3.00
2024-04-18T04:36:46.283Z,3.03
2024-04-18T04:39:13.657Z,4.18
2024-04-18T04:41:43.326Z,5.53
2024-04-18T04:44:10.825Z,5.18
2024-04-18T04:46:52.867Z,5.53
2024-04-18T04:49:24.755Z,5.70
2024-04-18T04:52:03.402Z,5.47
2024-04-18T04:54:48.477Z,3.75
2024-04-18T04:57:19.240Z,1.90
2024-04-18T05:00:07.848Z,2.40
2024-04-18T05:02:55.301Z,2.03
2024-04-18T05:05:25.538Z,1.70
2024-04-18T05:08:05.855Z,1.55
2024-04-18T05:10:41.530Z,1.73
2024-04-18T05:13:09.313Z,1.90
2024-04-18T05:15:45.656Z,1.30
2024-04-18T05:18:33.634Z,1.55
2024-04-18T05:21:03.937Z,1.58
2024-04-18T05:23:51.329Z,1.30
2024-04-18T05:26:18.864Z,1.10
2024-04-18T05:29:05.130Z,1.20
2024-04-18T05:31:32.577Z,0.90
2024-04-18T05:34:04.055Z,1.30
2024-04-18T05:36:34.340Z,0.93
2024-04-18T05:39:07.045Z,0.95
2024-04-18T05:41:34.456Z,1.23
2024-04-18T05:44:01.944Z,1.42
2024-04-18T05:46:29.404Z,1.77
2024-04-18T05:48:57.176Z,1.70
2024-04-18T05:51:24.842Z,1.50
2024-04-18T05:54:13.612Z,1.60
2024-04-18T05:57:01.180Z,1.70
2024-04-18T05:59:48.597Z,1.80
2024-04-18T06:02:16.149Z,1.58
2024-04-18T06:04:43.764Z,1.73
2024-04-18T06:07:34.983Z,2.20
2024-04-18T06:10:06.044Z,1.98
2024-04-18T06:15:00.699Z,1.52
2024-04-18T06:17:29.303Z,1.17
2024-04-18T06:19:56.867Z,2.25
2024-04-18T06:22:35.693Z,2.60
2024-04-18T06:25:25.143Z,2.33
2024-04-18T06:27:52.606Z,2.28
2024-04-18T06:30:23.053Z,1.90
2024-04-18T06:32:50.502Z,1.70
2024-04-18T06:35:17.974Z,1.85
2024-04-18T06:37:45.386Z,2.03
2024-04-18T06:40:13.130Z,1.85
2024-04-18T06:42:43.302Z,1.73
2024-04-18T06:45:10.805Z,2.13
2024-04-18T06:47:38.210Z,2.30
2024-04-18T06:50:08.852Z,1.80
2024-04-18T06:52:36.213Z,1.80
2024-04-18T06:55:04.095Z,1.60
2024-04-18T06:57:52.069Z,1.88
2024-04-18T07:00:22.291Z,1.60
2024-04-18T07:02:49.850Z,1.90
2024-04-18T07:05:36.041Z,1.98
2024-04-18T07:08:22.326Z,1.05
2024-04-18T07:10:50.615Z,1.23
2024-04-18T07:13:36.222Z,1.60
2024-04-18T07:16:22.719Z,1.15
2024-04-18T07:21:20.507Z,1.58
2024-04-18T07:23:47.900Z,1.17
2024-04-18T07:26:37.141Z,1.58
2024-04-18T07:29:10.129Z,1.67
2024-04-18T07:31:39.322Z,1.60
2024-04-18T07:34:15.938Z,1.73
2024-04-18T07:36:46.091Z,1.77
2024-04-18T07:39:13.553Z,1.40
2024-04-18T07:41:40.975Z,1.33
2024-04-18T07:44:13.388Z,1.13
2024-04-18T07:46:41.329Z,1.70
2024-04-18T07:49:10.414Z,2.20
2024-04-18T07:51:39.540Z,2.72
2024-04-18T07:54:07.204Z,1.33
2024-04-18T07:56:34.880Z,1.35
2024-04-18T07:59:03.582Z,1.50
2024-04-18T08:01:38.119Z,1.13
2024-04-18T08:04:27.114Z,1.42
2024-04-18T08:09:26.136Z,2.65
2024-04-18T08:12:22.644Z,3.33
2024-04-18T08:14:46.196Z,3.08
2024-04-18T08:17:19.056Z,1.95
2024-04-18T08:19:46.643Z,1.45
2024-04-18T08:22:14.154Z,1.48
2024-04-18T08:24:41.502Z,1.33
2024-04-18T08:27:09.281Z,1.63
2024-04-18T08:29:37.018Z,1.38
2024-04-18T08:32:04.934Z,1.40
2024-04-18T08:34:37.668Z,1.60
2024-04-18T08:37:06.808Z,1.67
2024-04-18T08:39:34.210Z,2.17
2024-04-18T08:42:03.417Z,2.15
2024-04-18T08:44:31.017Z,2.50
2024-04-18T08:47:00.831Z,2.67
2024-04-18T08:49:28.766Z,1.98
2024-04-18T08:52:00.312Z,1.85
2024-04-18T08:54:28.933Z,2.28
2024-04-18T08:56:59.220Z,2.55
2024-04-18T08:59:26.661Z,2.58
2024-04-18T09:01:55.271Z,2.25
2024-04-18T09:04:22.977Z,2.10
2024-04-18T09:06:50.480Z,3.05
2024-04-18T09:09:24.805Z,2.97
2024-04-18T09:11:52.625Z,3.00
2024-04-18T09:14:20.099Z,3.08
2024-04-18T09:16:47.640Z,2.70
2024-04-18T09:19:16.230Z,2.00
2024-04-18T09:21:43.992Z,1.70
2024-04-18T09:24:11.680Z,2.35
2024-04-18T09:26:41.759Z,1.85
2024-04-18T09:29:09.246Z,1.30
2024-04-18T09:31:43.333Z,1.10
2024-04-18T09:34:17.330Z,1.15
2024-04-18T09:36:46.378Z,1.60
2024-04-18T09:39:20.120Z,1.92
2024-04-18T09:41:57.992Z,1.90
2024-04-18T09:44:30.182Z,1.52
2024-04-18T09:46:59.621Z,1.50
2024-04-18T09:49:28.395Z,1.42
2024-04-18T09:51:58.402Z,1.30
2024-04-18T09:54:27.104Z,0.85
2024-04-18T09:56:59.713Z,0.95
2024-04-18T09:59:29.121Z,2.00
2024-04-18T10:01:58.238Z,2.28
2024-04-18T10:04:26.091Z,1.70
2024-04-18T10:06:55.560Z,1.50
2024-04-18T10:09:25.197Z,1.40
2024-04-18T10:11:52.896Z,1.70
2024-04-18T10:14:23.095Z,1.92
2024-04-18T10:16:51.687Z,2.05
2024-04-18T10:19:23.307Z,1.40
2024-04-18T10:22:10.823Z,1.10
2024-04-18T10:24:43.858Z,1.10
2024-04-18T10:27:17.016Z,1.10
2024-04-18T10:29:58.730Z,1.27
2024-04-18T10:32:28.942Z,1.00
2024-04-18T10:34:56.628Z,1.20
2024-04-18T10:37:24.343Z,1.08
2024-04-18T10:39:54.019Z,1.50
2024-04-18T10:42:22.550Z,1.50
2024-04-18T10:44:51.015Z,1.40
2024-04-18T10:47:23.626Z,1.50
2024-04-18T10:49:51.465Z,1.23
2024-04-18T10:52:19.369Z,1.25
2024-04-18T10:54:49.935Z,1.48
2024-04-18T10:57:18.728Z,0.80
2024-04-18T10:59:48.724Z,1.50
2024-04-18T11:02:18.863Z,1.30
2024-04-18T11:04:49.020Z,1.20
2024-04-18T11:07:16.512Z,1.10
2024-04-18T11:09:45.621Z,1.40
2024-04-18T11:12:15.610Z,0.85
2024-04-18T11:14:43.321Z,1.30
2024-04-18T11:17:11.107Z,1.08
2024-04-18T11:19:38.968Z,0.82
2024-04-18T11:22:09.125Z,0.82
2024-04-18T11:24:37.451Z,0.90
2024-04-18T11:27:06.875Z,1.10
2024-04-18T11:29:34.270Z,1.38
2024-04-18T11:32:07.722Z,1.63
2024-04-18T11:34:35.511Z,1.50
2024-04-18T11:37:12.336Z,1.50
2024-04-18T11:39:40.794Z,1.80
2024-04-18T11:42:08.675Z,1.90
2024-04-18T11:44:36.263Z,1.40
2024-04-18T11:47:04.040Z,1.05
2024-04-18T11:49:31.628Z,1.10
2024-04-18T11:51:59.100Z,1.30
2024-04-18T11:54:29.415Z,1.08
2024-04-18T11:56:56.933Z,1.27
2024-04-18T11:59:33.187Z,1.17
2024-04-18T12:02:00.954Z,1.30
2024-04-18T12:04:28.741Z,1.20
2024-04-18T12:06:56.302Z,1.00
2024-04-18T12:09:38.284Z,1.75
2024-04-18T12:12:07.002Z,1.77
2024-04-18T12:17:29.682Z,1.65
2024-04-18T12:20:20.788Z,1.02
2024-04-18T12:22:48.739Z,1.40
2024-04-18T12:25:19.435Z,1.58
2024-04-18T12:27:48.619Z,1.30
2024-04-18T12:30:32.289Z,1.20
2024-04-18T12:33:18.692Z,1.38
2024-04-18T12:35:46.480Z,2.10
2024-04-18T12:38:13.979Z,1.83
2024-04-18T12:40:49.620Z,1.77
2024-04-18T12:43:18.658Z,1.20
2024-04-18T12:46:06.332Z,1.40
2024-04-18T12:51:19.846Z,1.08
2024-04-18T12:53:47.577Z,1.75
2024-04-18T12:56:19.445Z,1.55
2024-04-18T12:58:46.897Z,3.88
2024-04-18T13:01:14.889Z,1.40
2024-04-18T13:03:46.012Z,1.58
2024-04-18T13:06:32.980Z,2.10
2024-04-18T13:09:20.506Z,1.70
2024-04-18T13:11:50.588Z,1.20
2024-04-18T13:14:18.182Z,1.00
2024-04-18T13:16:45.910Z,1.13
2024-04-18T13:19:15.294Z,1.50
2024-04-18T13:21:42.902Z,1.33
2024-04-18T13:24:12.205Z,1.05
2024-04-18T13:26:59.178Z,1.50
2024-04-18T13:29:27.162Z,1.00
2024-04-18T13:32:20.903Z,1.17
2024-04-18T13:34:49.309Z,1.23
2024-04-18T13:37:16.798Z,1.38
2024-04-18T13:39:51.581Z,3.17
2024-04-18T13:42:21.877Z,4.28
2024-04-18T13:44:54.269Z,4.22
2024-04-18T13:47:46.044Z,4.10
2024-04-18T13:50:13.609Z,3.42
2024-04-18T13:52:41.019Z,2.80
2024-04-18T13:55:08.609Z,2.60
2024-04-18T13:57:38.843Z,2.42
2024-04-18T14:00:22.234Z,2.35
2024-04-18T14:03:09.841Z,2.83
2024-04-18T14:05:57.957Z,2.65
2024-04-18T14:08:37.595Z,2.63
2024-04-18T14:11:26.238Z,2.45
2024-04-18T14:14:10.908Z,2.20
2024-04-18T14:17:17.768Z,2.80
2024-04-18T14:20:05.365Z,2.70
2024-04-18T14:22:33.250Z,2.20
2024-04-18T14:25:00.801Z,2.00
2024-04-18T14:27:34.703Z,2.10
2024-04-18T14:30:05.844Z,2.10
2024-04-18T14:32:36.372Z,2.58
2024-04-18T14:35:04.340Z,2.00
2024-04-18T14:37:34.653Z,2.20
2024-04-18T14:40:03.376Z,3.10
2024-04-18T14:42:31.684Z,3.30
2024-04-18T14:44:59.260Z,3.33
2024-04-18T14:47:29.634Z,2.72
2024-04-18T14:50:03.802Z,2.92
2024-04-18T14:52:37.845Z,2.88
2024-04-18T14:55:31.316Z,2.63
2024-04-18T14:58:17.687Z,2.95
2024-04-18T15:00:54.812Z,3.50
2024-04-18T15:03:26.078Z,3.08
2024-04-18T15:06:13.784Z,2.40
2024-04-18T15:08:43.366Z,3.15
2024-04-18T15:11:25.004Z,2.67
2024-04-18T15:14:04.783Z,2.58
2024-04-18T15:16:32.499Z,2.47
2024-04-18T15:19:03.130Z,2.58
2024-04-18T15:21:49.907Z,2.72
2024-04-18T15:24:17.600Z,2.90
2024-04-18T15:27:05.291Z,2.25
2024-04-18T15:29:33.926Z,2.60
2024-04-18T15:32:24.619Z,4.35
2024-04-18T15:35:14.150Z,3.83
2024-04-18T15:38:00.546Z,3.83
2024-04-18T15:40:33.992Z,4.32
2024-04-18T15:45:32.820Z,3.17
2024-04-18T15:48:18.989Z,3.10
2024-04-18T15:50:59.438Z,3.15
2024-04-18T15:53:31.196Z,3.30
2024-04-18T15:56:09.642Z,3.35
2024-04-18T15:58:55.724Z,3.20
2024-04-18T16:01:24.738Z,7.00
2024-04-18T16:04:11.101Z,8.30
2024-04-18T16:06:59.852Z,6.17
2024-04-18T16:09:46.099Z,5.28
2024-04-18T16:12:22.773Z,6.45
2024-04-18T16:15:04.547Z,7.18
2024-04-18T16:17:35.367Z,5.65
2024-04-18T16:20:13.851Z,6.95
2024-04-18T16:22:44.413Z,7.35
2024-04-18T16:25:28.228Z,6.45
2024-04-18T16:27:55.875Z,6.20
2024-04-18T16:30:26.488Z,6.25
2024-04-18T16:32:54.339Z,6.63
2024-04-18T16:35:22.268Z,4.78
2024-04-18T16:38:12.630Z,3.90
2024-04-18T16:40:53.711Z,5.38
2024-04-18T16:43:30.781Z,4.70
2024-04-18T16:45:58.326Z,6.60
2024-04-18T16:48:27.062Z,5.43
2024-04-18T16:50:54.708Z,6.57
2024-04-18T16:53:25.899Z,6.30
2024-04-18T16:56:13.337Z,5.47
2024-04-18T16:58:54.446Z,12.95
2024-04-18T17:01:22.305Z,9.60
2024-04-18T17:03:50.446Z,9.30
2024-04-18T17:06:41.665Z,7.07
2024-04-18T17:11:46.240Z,6.93
2024-04-18T17:14:32.243Z,7.40
2024-04-18T17:16:59.780Z,9.10
2024-04-18T17:19:27.916Z,7.15
2024-04-18T17:21:56.314Z,6.15
2024-04-18T17:24:42.453Z,6.88
2024-04-18T17:27:09.972Z,10.05
2024-04-18T17:29:41.007Z,8.02
2024-04-18T17:32:08.799Z,7.35
2024-04-18T17:34:36.257Z,5.80
2024-04-18T17:37:09.659Z,6.30
2024-04-18T17:39:55.094Z,5.38
2024-04-18T17:42:22.876Z,5.18
2024-04-18T17:44:56.670Z,4.70
2024-04-18T17:47:27.564Z,4.30
2024-04-18T17:49:55.298Z,5.05
2024-04-18T17:52:25.875Z,4.40
2024-04-18T17:54:59.175Z,4.07
2024-04-18T17:57:28.139Z,4.82
2024-04-18T18:00:15.411Z,7.32
2024-04-18T18:02:43.317Z,7.82
2024-04-18T18:05:30.827Z,6.88
2024-04-18T18:08:18.273Z,3.97
2024-04-18T18:10:48.455Z,3.53
2024-04-18T18:13:16.151Z,2.60
2024-04-18T18:15:44.029Z,2.42
2024-04-18T18:18:14.141Z,3.33
2024-04-18T18:20:44.338Z,2.33
2024-04-18T18:23:14.661Z,2.47
2024-04-18T18:25:44.091Z,3.08
2024-04-18T18:28:15.178Z,3.20
2024-04-18T18:31:03.035Z,2.58
2024-04-18T18:33:30.596Z,3.50
2024-04-18T18:35:58.394Z,2.60
2024-04-18T18:38:26.111Z,1.27
2024-04-18T18:40:53.650Z,0.50
2024-04-18T18:43:26.970Z,0.93
2024-04-18T18:45:54.511Z,0.55
2024-04-18T18:48:22.365Z,0.60
2024-04-18T18:51:06.293Z,0.93
2024-04-18T18:53:34.830Z,0.90
2024-04-18T18:56:02.776Z,0.65
2024-04-18T18:58:51.722Z,0.70
2024-04-18T19:01:22.879Z,0.60
2024-04-18T19:04:10.849Z,0.50
2024-04-18T19:06:38.610Z,0.90
2024-04-18T19:09:07.531Z,0.77
2024-04-18T19:11:37.920Z,0.90
2024-04-18T19:14:08.322Z,1.00
2024-04-18T19:16:57.156Z,1.00
2024-04-18T19:19:26.101Z,1.23
2024-04-18T19:21:55.641Z,1.45
2024-04-18T19:24:23.343Z,1.90
2024-04-18T19:27:02.083Z,2.45
2024-04-18T19:29:40.386Z,3.63
2024-04-18T19:32:14.563Z,3.00
2024-04-18T19:34:42.220Z,3.83
2024-04-18T19:37:12.546Z,3.38
2024-04-18T19:39:40.730Z,3.30
2024-04-18T19:42:09.122Z,3.28
2024-04-18T19:44:39.602Z,2.92
2024-04-18T19:47:07.327Z,2.50
2024-04-18T19:49:36.391Z,2.20
2024-04-18T19:52:07.432Z,2.15
2024-04-18T19:54:36.169Z,1.90
2024-04-18T19:57:04.479Z,2.33
2024-04-18T19:59:32.591Z,2.53
2024-04-18T20:02:05.826Z,2.60
2024-04-18T20:04:33.564Z,1.85
2024-04-18T20:07:01.318Z,1.90
2024-04-18T20:09:30.916Z,1.80
2024-04-18T20:11:58.459Z,2.80
2024-04-18T20:14:26.096Z,2.58
2024-04-18T20:16:55.546Z,2.58
2024-04-18T20:19:27.577Z,2.78
2024-04-18T20:21:55.625Z,3.30
2024-04-18T20:24:24.024Z,2.92
2024-04-18T20:27:10.181Z,3.38
2024-04-18T20:29:47.733Z,2.90
2024-04-18T20:34:56.909Z,2.97
2024-04-18T20:37:25.551Z,3.25
2024-04-18T20:39:58.584Z,3.97
2024-04-18T20:42:29.634Z,3.03
2024-04-18T20:45:03.409Z,2.33
2024-04-18T20:47:45.418Z,2.22
2024-04-18T20:50:15.769Z,3.20
2024-04-18T20:52:45.185Z,3.38
2024-04-18T20:55:12.961Z,3.13
2024-04-18T20:57:40.545Z,2.90
2024-04-18T21:00:09.547Z,2.75
2024-04-18T21:02:38.039Z,2.25
2024-04-18T21:05:06.760Z,2.15
2024-04-18T21:07:37.120Z,1.60
2024-04-18T21:10:05.259Z,2.03
2024-04-18T21:12:33.858Z,1.58
2024-04-18T21:15:01.659Z,1.92
2024-04-18T21:17:31.261Z,1.50
2024-04-18T21:19:58.885Z,1.95
2024-04-18T21:22:26.560Z,2.22
2024-04-18T21:24:56.690Z,1.60
2024-04-18T21:27:24.437Z,1.73
2024-04-18T21:29:52.855Z,3.75
2024-04-18T21:32:20.263Z,2.53
2024-04-18T21:34:47.739Z,2.17
2024-04-18T21:37:16.092Z,2.20
2024-04-18T21:39:43.618Z,1.77
2024-04-18T21:42:13.838Z,1.40
2024-04-18T21:44:41.526Z,1.05
2024-04-18T21:47:08.926Z,1.30
2024-04-18T21:49:36.334Z,1.20
2024-04-18T21:52:04.399Z,0.90
2024-04-18T21:54:31.960Z,1.52
2024-04-18T21:57:03.358Z,1.08
2024-04-18T21:59:33.666Z,1.48
2024-04-18T22:02:01.413Z,1.27
2024-04-18T22:04:29.314Z,1.50
2024-04-18T22:06:56.870Z,1.48
2024-04-18T22:09:24.391Z,1.48
2024-04-18T22:11:52.113Z,1.60
2024-04-18T22:14:19.682Z,1.80
2024-04-18T22:16:49.844Z,1.60
2024-04-18T22:19:17.381Z,1.50
2024-04-18T22:21:44.916Z,1.45
2024-04-18T22:24:12.377Z,1.30
2024-04-18T22:26:39.936Z,1.40
2024-04-18T22:29:07.723Z,1.05
2024-04-18T22:31:35.291Z,0.95
2024-04-18T22:34:06.013Z,1.42
2024-04-18T22:36:33.965Z,1.85
2024-04-18T22:39:01.675Z,1.40
2024-04-18T22:41:29.179Z,1.60
2024-04-18T22:43:56.638Z,1.48
2024-04-18T22:46:24.124Z,1.30
2024-04-18T22:48:51.742Z,1.45
2024-04-18T22:51:21.926Z,1.40
2024-04-18T22:53:49.309Z,1.70
2024-04-18T22:56:16.919Z,2.05
2024-04-18T22:58:44.306Z,1.98
2024-04-18T23:01:11.919Z,1.70
2024-04-18T23:03:39.506Z,1.75
2024-04-18T23:06:14.383Z,1.35
2024-04-18T23:08:45.975Z,1.33
2024-04-18T23:11:14.105Z,1.50
2024-04-18T23:13:41.694Z,1.50
2024-04-18T23:16:09.369Z,1.50
2024-04-18T23:18:37.107Z,1.25
2024-04-18T23:21:05.300Z,1.30
2024-04-18T23:26:05.681Z,1.50
2024-04-18T23:28:33.122Z,1.55
2024-04-18T23:31:00.874Z,1.67
2024-04-18T23:33:28.815Z,1.42
2024-04-18T23:35:56.454Z,1.42
2024-04-18T23:38:24.059Z,1.55
2024-04-18T23:40:54.416Z,1.60
2024-04-18T23:43:24.715Z,1.73
2024-04-18T23:45:52.130Z,2.30
2024-04-18T23:48:19.697Z,2.22
2024-04-18T23:50:47.124Z,2.13
2024-04-18T23:53:14.639Z,2.40
2024-04-18T23:55:42.291Z,2.30
2024-04-18T23:58:09.790Z,1.92
